MTJ weather

Montrose Regional Airport
Montrose, Colorado, United States

Public forecast

Using degrees Fahrenheit for public forecast. Weather courtesy of forecast.io.

METAR (pilot weather report)

Retrieved 2019/07/17 22:53 UTC (1 hour ago):

KMTJ 172253Z AUTO 21011KT 10SM CLR 33/03 A3008 RMK AO2 SLP082 T03330033

TAF (pilot weather forecast)

Retrieved 2019/07/17 18:36 UTC (5 hours ago):

TAF KMTJ 171732Z 1718/1818 24007KT P6SM SKC FM171900 26015G23KT P6SM SKC FM180200 17010KT P6SM SKC FM180700 15007KT P6SM SKC